Paradise, Canada
Current Conditions -  °F | °C
As of 11:00 AM on Tuesday 27 Jan 2015 (Local Time) from CYQX Reporting Station
Broken Clouds Broken Clouds  
Wind Chill: -16°   Ceiling: 26000
Heat Index: -11°   Visibility: 20mi
Dew Point: -17°   Wind: 6mph
Humidity: 62%   Direction: 70°ENE
Pressure: 30.5"   Gusts: NA
Location:  49.37°N, 55.33°W
Report Text: CYQX 271400Z 07005KT 020V090 20SM FEW120 SCT160 BKN260 M11/M17 A3050 RMK AC1AC2CS4 SLP341
Loading
Personal Weather Stations






























Interactive Weather Map New forecast layout! Learn more

10-Day Weather Forecast

Advertisements
Track Severe Weather on mobile